Terminal Aerodrome Forecast
Issued by NWS Wichita, KS

Home | Current Version | Previous Version | Graphics & Text | Print | Product List | Glossary Off
Versions: 1 2 3 4 5 6 7 8 9 10 11 12 13 14 15 16 17

000
FTUS43 KICT 302300
TAFICT
TAF
KICT 302320Z 3100/3124 05007KT P6SM SCT025 BKN045
      TEMPO 3100/3101 SCT015 BKN025
     FM310200 03005KT P6SM SCT250
      TEMPO 3109/3113 4SM BR=

USA.gov is the U.S. government's official web portal to all federal, state and local government web resources and services.